Time;durP1;ratioP1;P1;durP2;ratioP2;P2;SDS_P1;SDS_P2;PMS_P1;PMS_P2;Temp;Humidity;BMP_temperature;BMP_pressure;BME280_temperature;BME280_humidity;BME280_pressure;Samples;Min_cycle;Max_cycle;Signal;HPM_P1;HPM_P2
2021/04/20 00:02:22;;;;;;;25.77;14.07;;;;;;;;;;4970919;28;20097;-70
2021/04/20 00:04:50;;;;;;;24.73;13.43;;;;;;;;;;4970544;28;20097;-69
2021/04/20 00:07:17;;;;;;;20.17;12.50;;;;;;;;;;4970571;28;20105;-70
2021/04/20 00:09:44;;;;;;;25.55;13.73;;;;;;;;;;4971451;28;20053;-70
2021/04/20 00:12:13;;;;;;;24.75;13.88;;;;;;;;;;4966833;28;20081;-70
2021/04/20 00:14:40;;;;;;;25.85;14.32;;;;;;;;;;4967195;28;20091;-70
2021/04/20 00:17:07;;;;;;;26.08;13.25;;;;;;;;;;4972684;28;20098;-70
2021/04/20 00:19:35;;;;;;;24.40;13.70;;;;;;;;;;4974792;28;20047;-70
2021/04/20 00:22:03;;;;;;;24.40;13.65;;;;;;;;;;4961084;28;20057;-69
2021/04/20 00:24:30;;;;;;;23.00;13.45;;;;;;;;;;4973478;28;20090;-71
2021/04/20 00:26:58;;;;;;;24.00;13.20;;;;;;;;;;4972378;28;20142;-69
2021/04/20 00:29:27;;;;;;;23.95;13.65;;;;;;;;;;4974128;28;20122;-70
2021/04/20 00:31:54;;;;;;;26.80;14.07;;;;;;;;;;4974304;28;20046;-70
2021/04/20 00:34:22;;;;;;;24.88;13.95;;;;;;;;;;4971436;28;20051;-70
2021/04/20 00:36:49;;;;;;;27.92;15.07;;;;;;;;;;4973525;28;20079;-70
2021/04/20 00:39:17;;;;;;;26.25;14.30;;;;;;;;;;4974413;28;20105;-70
2021/04/20 00:41:44;;;;;;;25.80;14.13;;;;;;;;;;4974064;28;20126;-70
2021/04/20 00:44:12;;;;;;;25.88;15.20;;;;;;;;;;4962659;28;20443;-70
2021/04/20 00:46:40;;;;;;;26.00;13.70;;;;;;;;;;4972854;28;20129;-70
2021/04/20 00:49:07;;;;;;;28.67;15.65;;;;;;;;;;4974393;28;20058;-70
2021/04/20 00:51:34;;;;;;;27.55;15.68;;;;;;;;;;4972932;28;20142;-70
2021/04/20 00:54:02;;;;;;;28.38;15.13;;;;;;;;;;4974242;28;20508;-69
2021/04/20 00:56:29;;;;;;;24.42;13.60;;;;;;;;;;4973725;28;20042;-70
2021/04/20 00:58:56;;;;;;;24.30;14.50;;;;;;;;;;4972911;28;20487;-70
2021/04/20 01:01:24;;;;;;;25.08;15.32;;;;;;;;;;4963353;28;20089;-71
2021/04/20 01:03:52;;;;;;;28.05;15.45;;;;;;;;;;4968830;28;20138;-70
2021/04/20 01:06:20;;;;;;;28.70;15.00;;;;;;;;;;4973701;28;20047;-69
2021/04/20 01:08:48;;;;;;;26.02;14.80;;;;;;;;;;4973164;28;20073;-70
2021/04/20 01:11:15;;;;;;;25.67;14.82;;;;;;;;;;4972791;28;20085;-70
2021/04/20 01:13:43;;;;;;;28.88;15.48;;;;;;;;;;4973821;28;20101;-69
2021/04/20 01:16:10;;;;;;;29.13;15.40;;;;;;;;;;4968659;28;20145;-70
2021/04/20 01:18:39;;;;;;;29.35;15.25;;;;;;;;;;4972448;28;20047;-70
2021/04/20 01:21:10;;;;;;;29.98;16.08;;;;;;;;;;4972630;28;20051;-69
2021/04/20 01:23:43;;;;;;;27.05;14.98;;;;;;;;;;4972354;28;20576;-71
2021/04/20 01:26:12;;;;;;;26.55;14.77;;;;;;;;;;4971876;28;20491;-70
2021/04/20 01:28:39;;;;;;;30.20;16.30;;;;;;;;;;4970868;28;20062;-69
2021/04/20 01:31:08;;;;;;;28.98;15.95;;;;;;;;;;4972557;28;20053;-69
2021/04/20 01:33:35;;;;;;;35.17;19.17;;;;;;;;;;4973141;28;20050;-70
2021/04/20 01:36:03;;;;;;;34.53;19.52;;;;;;;;;;4971604;28;20055;-70
2021/04/20 01:38:30;;;;;;;33.50;18.20;;;;;;;;;;4972514;28;20093;-69
2021/04/20 01:40:58;;;;;;;36.97;19.77;;;;;;;;;;4972748;28;20503;-70
2021/04/20 01:43:27;;;;;;;31.00;18.10;;;;;;;;;;4972542;28;20089;-70
2021/04/20 01:45:54;;;;;;;37.85;20.52;;;;;;;;;;4967962;28;20131;-69
2021/04/20 01:48:21;;;;;;;37.45;19.55;;;;;;;;;;4971999;28;20081;-69
2021/04/20 01:50:49;;;;;;;42.75;21.20;;;;;;;;;;4969598;28;20133;-70
2021/04/20 01:53:16;;;;;;;38.75;21.63;;;;;;;;;;4971889;28;20078;-69
2021/04/20 01:55:44;;;;;;;36.30;19.15;;;;;;;;;;4972058;28;20059;-70
2021/04/20 01:58:11;;;;;;;41.92;21.33;;;;;;;;;;4972026;28;20078;-70
2021/04/20 02:00:40;;;;;;;41.03;22.45;;;;;;;;;;4971269;28;20490;-70
2021/04/20 02:03:09;;;;;;;41.22;22.67;;;;;;;;;;4970948;28;20580;-70
2021/04/20 02:05:36;;;;;;;37.72;21.27;;;;;;;;;;4970700;28;20093;-70
2021/04/20 02:08:04;;;;;;;37.70;20.67;;;;;;;;;;4970632;28;20516;-70
2021/04/20 02:10:32;;;;;;;48.58;23.17;;;;;;;;;;4972285;28;20085;-70
2021/04/20 02:12:59;;;;;;;37.58;20.38;;;;;;;;;;4970243;28;20055;-70
2021/04/20 02:15:26;;;;;;;38.97;21.02;;;;;;;;;;4968364;28;20082;-70
2021/04/20 02:17:56;;;;;;;40.92;22.00;;;;;;;;;;4968497;28;20162;-69
2021/04/20 02:20:24;;;;;;;40.78;22.17;;;;;;;;;;4968933;28;20387;-70
2021/04/20 02:22:52;;;;;;;39.10;22.30;;;;;;;;;;4970935;28;20074;-71
2021/04/20 02:25:20;;;;;;;46.38;24.10;;;;;;;;;;4970554;28;20054;-70
2021/04/20 02:27:49;;;;;;;42.17;22.52;;;;;;;;;;4970821;28;20043;-71
2021/04/20 02:30:17;;;;;;;43.08;23.27;;;;;;;;;;4971307;28;20047;-70
2021/04/20 02:32:44;;;;;;;41.05;22.08;;;;;;;;;;4971664;28;20516;-70
2021/04/20 02:35:14;;;;;;;40.30;21.42;;;;;;;;;;4968789;28;20391;-70
2021/04/20 02:37:42;;;;;;;45.53;22.55;;;;;;;;;;4971005;28;20054;-71
2021/04/20 02:40:11;;;;;;;39.97;22.02;;;;;;;;;;4970599;28;20475;-69
2021/04/20 02:42:39;;;;;;;39.25;22.02;;;;;;;;;;4971827;28;20487;-69
2021/04/20 02:45:07;;;;;;;42.35;22.77;;;;;;;;;;4971388;28;20082;-70
2021/04/20 02:47:35;;;;;;;37.55;20.30;;;;;;;;;;4966294;28;20106;-70
2021/04/20 02:50:03;;;;;;;45.55;22.75;;;;;;;;;;4968246;28;20128;-71
2021/04/20 02:52:31;;;;;;;43.42;23.50;;;;;;;;;;4972185;28;20109;-70
2021/04/20 02:55:01;;;;;;;42.25;23.20;;;;;;;;;;4970947;28;20094;-69
2021/04/20 02:57:28;;;;;;;41.88;22.40;;;;;;;;;;4970707;28;20066;-70
2021/04/20 02:59:56;;;;;;;40.13;22.58;;;;;;;;;;4971409;28;20120;-70
2021/04/20 03:02:24;;;;;;;43.83;22.60;;;;;;;;;;4970991;28;20058;-69
2021/04/20 03:04:51;;;;;;;44.70;24.08;;;;;;;;;;4967287;28;20050;-69
2021/04/20 03:07:19;;;;;;;45.55;24.02;;;;;;;;;;4970224;28;20051;-69
2021/04/20 03:09:47;;;;;;;42.20;22.58;;;;;;;;;;4967768;28;20047;-69
2021/04/20 03:12:15;;;;;;;42.85;23.10;;;;;;;;;;4971995;28;20138;-70
2021/04/20 03:14:43;;;;;;;51.83;25.15;;;;;;;;;;4971255;28;20051;-69
2021/04/20 03:17:10;;;;;;;49.55;25.25;;;;;;;;;;4953682;28;20054;-69
2021/04/20 03:19:38;;;;;;;45.22;24.70;;;;;;;;;;4969524;28;20050;-69
2021/04/20 03:22:06;;;;;;;45.72;24.63;;;;;;;;;;4971648;28;20050;-70
2021/04/20 03:24:52;;;;;;;47.30;24.50;;;;;;;;;;4970621;28;20102;-69
2021/04/20 03:27:21;;;;;;;46.70;25.10;;;;;;;;;;4970885;28;20058;-69
2021/04/20 03:29:48;;;;;;;48.95;26.20;;;;;;;;;;4970200;28;20125;-71
2021/04/20 03:32:15;;;;;;;47.50;24.95;;;;;;;;;;4966042;28;20138;-69
2021/04/20 03:34:46;;;;;;;45.85;24.45;;;;;;;;;;4969918;28;20514;-69
2021/04/20 03:37:14;;;;;;;46.47;25.13;;;;;;;;;;4971692;28;20050;-69
2021/04/20 03:39:44;;;;;;;42.47;24.08;;;;;;;;;;4970444;28;20074;-70
2021/04/20 03:42:13;;;;;;;46.38;24.70;;;;;;;;;;4971978;28;20046;-70
2021/04/20 03:44:42;;;;;;;44.95;23.83;;;;;;;;;;4970795;28;20128;-69
2021/04/20 03:47:20;;;;;;;46.08;24.25;;;;;;;;;;4958686;28;20149;-70
2021/04/20 03:49:49;;;;;;;49.60;25.35;;;;;;;;;;4964249;28;20121;-70
2021/04/20 03:52:19;;;;;;;43.80;24.20;;;;;;;;;;4959424;28;20048;-69
2021/04/20 03:54:47;;;;;;;46.67;24.85;;;;;;;;;;4963950;28;20042;-70
2021/04/20 03:57:15;;;;;;;48.20;25.85;;;;;;;;;;4973807;28;20078;-69
2021/04/20 03:59:45;;;;;;;49.90;26.02;;;;;;;;;;4974511;28;20043;-69
2021/04/20 04:02:13;;;;;;;48.03;25.95;;;;;;;;;;4973617;28;20055;-69
2021/04/20 04:04:43;;;;;;;46.83;24.38;;;;;;;;;;4974510;28;20055;-70
2021/04/20 04:07:12;;;;;;;48.55;25.10;;;;;;;;;;4974344;28;20069;-69
2021/04/20 04:09:40;;;;;;;49.15;24.40;;;;;;;;;;4974570;28;20051;-69
2021/04/20 04:12:09;;;;;;;52.20;25.65;;;;;;;;;;4972839;28;20491;-69
2021/04/20 04:14:37;;;;;;;47.88;24.38;;;;;;;;;;4974534;28;20538;-69
2021/04/20 04:17:07;;;;;;;48.47;25.17;;;;;;;;;;4974124;28;20118;-69
2021/04/20 04:19:36;;;;;;;52.42;25.70;;;;;;;;;;4970085;28;20513;-69
2021/04/20 04:22:05;;;;;;;46.17;23.35;;;;;;;;;;4973547;28;20055;-69
2021/04/20 04:24:33;;;;;;;47.05;24.40;;;;;;;;;;4974093;28;20078;-70
2021/04/20 04:27:03;;;;;;;46.30;24.17;;;;;;;;;;4970758;28;20195;-70
2021/04/20 04:29:31;;;;;;;48.60;25.00;;;;;;;;;;4973998;28;20074;-69
2021/04/20 04:31:58;;;;;;;52.22;25.13;;;;;;;;;;4967632;28;20038;-69
2021/04/20 04:34:27;;;;;;;47.95;25.23;;;;;;;;;;4970936;28;20514;-69
2021/04/20 04:36:54;;;;;;;54.15;26.85;;;;;;;;;;4971592;28;20046;-69
2021/04/20 04:39:22;;;;;;;46.95;24.88;;;;;;;;;;4972235;28;20118;-70
2021/04/20 04:41:49;;;;;;;46.42;24.08;;;;;;;;;;4971651;28;20471;-69
2021/04/20 04:44:17;;;;;;;51.20;26.98;;;;;;;;;;4974899;28;20154;-69
2021/04/20 04:46:45;;;;;;;48.58;25.65;;;;;;;;;;4967008;28;20109;-69
2021/04/20 04:49:13;;;;;;;50.03;26.20;;;;;;;;;;4961880;28;20406;-69
2021/04/20 04:51:41;;;;;;;47.25;24.98;;;;;;;;;;4966158;28;20057;-69
2021/04/20 04:54:10;;;;;;;51.20;26.00;;;;;;;;;;4967738;28;20141;-70
2021/04/20 04:56:39;;;;;;;47.58;25.10;;;;;;;;;;4970284;28;20045;-69
2021/04/20 04:59:08;;;;;;;50.67;25.17;;;;;;;;;;4967758;28;20049;-70
2021/04/20 05:01:37;;;;;;;49.97;25.60;;;;;;;;;;4969709;28;20078;-69
2021/04/20 05:04:06;;;;;;;46.28;24.85;;;;;;;;;;4971473;28;20109;-70
2021/04/20 05:06:35;;;;;;;51.90;24.63;;;;;;;;;;4971176;28;20448;-69
2021/04/20 05:09:08;;;;;;;47.72;25.17;;;;;;;;;;4970445;28;20089;-70
2021/04/20 05:11:36;;;;;;;49.00;25.70;;;;;;;;;;4960622;28;20129;-71
2021/04/20 05:14:04;;;;;;;53.58;26.35;;;;;;;;;;4966785;28;20506;-70
2021/04/20 05:16:32;;;;;;;54.47;27.35;;;;;;;;;;4963792;28;20078;-70
2021/04/20 05:19:01;;;;;;;51.17;26.35;;;;;;;;;;4967931;28;20086;-71
2021/04/20 05:21:28;;;;;;;52.42;25.85;;;;;;;;;;4965701;28;20455;-70
2021/04/20 05:23:56;;;;;;;51.25;26.05;;;;;;;;;;4970345;28;20082;-70
2021/04/20 05:26:26;;;;;;;48.17;26.50;;;;;;;;;;4970052;28;20534;-70
2021/04/20 05:28:54;;;;;;;51.03;25.58;;;;;;;;;;4968744;28;20051;-70
2021/04/20 05:31:21;;;;;;;48.92;24.90;;;;;;;;;;4960993;28;20146;-70
2021/04/20 05:33:55;;;;;;;44.60;24.58;;;;;;;;;;4961935;28;20485;-70
2021/04/20 05:36:23;;;;;;;46.80;25.38;;;;;;;;;;4969593;28;20471;-70
2021/04/20 05:38:50;;;;;;;52.63;25.35;;;;;;;;;;4960604;28;20141;-71
2021/04/20 05:41:22;;;;;;;47.17;25.25;;;;;;;;;;4958748;28;20083;-71
2021/04/20 05:43:51;;;;;;;48.67;24.90;;;;;;;;;;4958815;28;20047;-70
2021/04/20 05:46:19;;;;;;;53.67;25.52;;;;;;;;;;4963396;28;20506;-70
2021/04/20 05:48:46;;;;;;;49.25;24.98;;;;;;;;;;4961336;28;20077;-70
2021/04/20 05:51:15;;;;;;;45.50;24.75;;;;;;;;;;4964790;28;20057;-70
2021/04/20 05:53:43;;;;;;;54.10;26.20;;;;;;;;;;4965226;28;20061;-70
2021/04/20 05:56:10;;;;;;;41.53;22.73;;;;;;;;;;4973649;28;20093;-69
2021/04/20 05:58:37;;;;;;;50.13;25.02;;;;;;;;;;4973833;28;20086;-70
2021/04/20 06:01:07;;;;;;;50.13;24.95;;;;;;;;;;4967559;28;20054;-70
2021/04/20 06:03:49;;;;;;;54.60;25.90;;;;;;;;;;4282748;28;10001299;-70
2021/04/20 06:06:18;;;;;;;53.50;26.75;;;;;;;;;;1710118;28;10001976;-70
2021/04/20 06:08:46;;;;;;;54.38;25.40;;;;;;;;;;4966536;28;20129;-70
2021/04/20 06:11:14;;;;;;;50.50;25.35;;;;;;;;;;4968074;28;20101;-70
2021/04/20 06:13:42;;;;;;;46.65;25.33;;;;;;;;;;4967828;28;20070;-70
2021/04/20 06:16:10;;;;;;;50.83;25.13;;;;;;;;;;4968291;28;20551;-69
2021/04/20 06:18:39;;;;;;;48.28;24.55;;;;;;;;;;4965812;28;20042;-71
2021/04/20 06:21:09;;;;;;;43.65;23.08;;;;;;;;;;4966727;28;20051;-70
2021/04/20 06:23:38;;;;;;;45.97;24.08;;;;;;;;;;4968204;28;20050;-70
2021/04/20 06:26:06;;;;;;;46.58;22.95;;;;;;;;;;4967257;28;20108;-70
2021/04/20 06:28:37;;;;;;;48.03;24.63;;;;;;;;;;4966918;28;20533;-70
2021/04/20 06:31:07;;;;;;;45.10;23.77;;;;;;;;;;4962634;28;20141;-70
2021/04/20 06:33:36;;;;;;;46.38;22.80;;;;;;;;;;4957384;28;20221;-70
2021/04/20 06:36:06;;;;;;;43.90;21.85;;;;;;;;;;4955373;28;20062;-70
2021/04/20 06:38:34;;;;;;;48.40;24.48;;;;;;;;;;4953330;28;20054;-70
2021/04/20 06:41:03;;;;;;;47.75;23.25;;;;;;;;;;4956935;28;20061;-72
2021/04/20 06:43:54;;;;;;;45.53;23.98;;;;;;;;;;4966027;28;20622;-70
2021/04/20 06:46:26;;;;;;;46.72;23.83;;;;;;;;;;4963552;28;20138;-70
2021/04/20 06:48:58;;;;;;;46.42;24.83;;;;;;;;;;4965333;28;20061;-70
2021/04/20 06:51:27;;;;;;;42.40;22.98;;;;;;;;;;4965066;28;20458;-71
2021/04/20 06:53:56;;;;;;;45.58;24.38;;;;;;;;;;4964790;28;20074;-69
2021/04/20 06:56:28;;;;;;;44.75;23.50;;;;;;;;;;4969048;28;20517;-70
2021/04/20 06:59:02;;;;;;;43.28;22.98;;;;;;;;;;4963877;28;20073;-70
2021/04/20 07:01:35;;;;;;;46.10;23.83;;;;;;;;;;4969261;28;20046;-71
2021/04/20 07:04:11;;;;;;;47.08;23.70;;;;;;;;;;4949460;28;20496;-70
2021/04/20 07:06:43;;;;;;;42.53;23.02;;;;;;;;;;4947834;28;20052;-70
2021/04/20 07:09:15;;;;;;;44.88;23.52;;;;;;;;;;4939848;28;20059;-70
2021/04/20 07:11:45;;;;;;;41.70;23.05;;;;;;;;;;4947277;28;20086;-70
2021/04/20 07:14:18;;;;;;;46.03;23.85;;;;;;;;;;4944528;29;20384;-71
2021/04/20 07:16:53;;;;;;;41.08;22.13;;;;;;;;;;4949459;28;20058;-71
2021/04/20 07:19:29;;;;;;;44.28;22.42;;;;;;;;;;4947201;29;20043;-70
2021/04/20 07:22:13;;;;;;;45.45;23.73;;;;;;;;;;4948264;29;20051;-70
2021/04/20 07:24:50;;;;;;;43.00;22.25;;;;;;;;;;4958182;28;20054;-71
2021/04/20 07:27:33;;;;;;;42.72;22.17;;;;;;;;;;4946535;28;20051;-70
2021/04/20 07:30:09;;;;;;;42.55;21.75;;;;;;;;;;4948823;29;20086;-71
2021/04/20 07:32:57;;;;;;;41.65;20.45;;;;;;;;;;4927752;29;20060;-71
2021/04/20 07:35:30;;;;;;;45.83;22.58;;;;;;;;;;4929859;29;20058;-70
2021/04/20 07:38:02;;;;;;;43.10;23.30;;;;;;;;;;4930022;29;20051;-72
2021/04/20 07:40:34;;;;;;;39.58;21.50;;;;;;;;;;4929690;29;20484;-71
2021/04/20 07:43:39;;;;;;;42.90;22.33;;;;;;;;;;4933251;29;20146;-71
2021/04/20 07:46:10;;;;;;;46.20;24.00;;;;;;;;;;4892872;29;20151;-70
2021/04/20 07:48:47;;;;;;;40.47;21.75;;;;;;;;;;4928532;29;20512;-72
2021/04/20 07:51:21;;;;;;;42.80;22.77;;;;;;;;;;4924168;29;20198;-69
2021/04/20 07:53:53;;;;;;;41.75;23.20;;;;;;;;;;4922841;29;20510;-69
2021/04/20 07:56:25;;;;;;;40.22;21.98;;;;;;;;;;4925644;29;20134;-70
2021/04/20 07:58:54;;;;;;;44.30;22.83;;;;;;;;;;4931074;29;20081;-70
2021/04/20 08:01:41;;;;;;;46.15;23.02;;;;;;;;;;4930342;29;20087;-70
2021/04/20 08:04:13;;;;;;;43.97;21.50;;;;;;;;;;4948776;28;20114;-70
2021/04/20 08:06:45;;;;;;;41.15;21.98;;;;;;;;;;4948162;28;20051;-71
2021/04/20 08:09:15;;;;;;;40.75;21.15;;;;;;;;;;4953313;29;20058;-71
2021/04/20 08:11:47;;;;;;;40.70;21.88;;;;;;;;;;4945770;29;20055;-69
2021/04/20 08:14:17;;;;;;;40.70;21.63;;;;;;;;;;4952820;29;20055;-70
2021/04/20 08:16:46;;;;;;;42.33;23.02;;;;;;;;;;4945072;28;20756;-70
2021/04/20 08:19:18;;;;;;;44.58;20.98;;;;;;;;;;4947990;29;20521;-72
2021/04/20 08:21:50;;;;;;;41.08;21.63;;;;;;;;;;4951871;29;20051;-71
2021/04/20 08:24:22;;;;;;;39.30;19.95;;;;;;;;;;4947328;28;20075;-72
2021/04/20 08:26:53;;;;;;;43.42;20.83;;;;;;;;;;4946696;28;20114;-71
2021/04/20 08:29:24;;;;;;;38.53;20.77;;;;;;;;;;4949029;28;20051;-72
2021/04/20 08:31:54;;;;;;;39.72;23.10;;;;;;;;;;4945821;28;20438;-72
2021/04/20 08:34:26;;;;;;;40.20;21.20;;;;;;;;;;4940944;28;20513;-72
2021/04/20 08:37:20;;;;;;;41.65;20.55;;;;;;;;;;4940800;28;20047;-70
2021/04/20 08:39:50;;;;;;;39.97;21.08;;;;;;;;;;4944798;28;20052;-72
2021/04/20 08:42:21;;;;;;;43.97;22.50;;;;;;;;;;4943292;28;20162;-70
2021/04/20 08:44:53;;;;;;;40.80;21.73;;;;;;;;;;4943214;28;20508;-73
2021/04/20 08:47:26;;;;;;;39.28;20.58;;;;;;;;;;4944841;28;20294;-71
2021/04/20 08:49:57;;;;;;;41.13;21.35;;;;;;;;;;4945523;28;20049;-70
2021/04/20 08:52:36;;;;;;;44.10;22.23;;;;;;;;;;4941653;28;20051;-71
2021/04/20 08:55:15;;;;;;;45.90;22.48;;;;;;;;;;4944661;29;20055;-69
2021/04/20 08:57:53;;;;;;;38.55;20.90;;;;;;;;;;4946481;29;20055;-69
2021/04/20 09:00:24;;;;;;;41.20;22.17;;;;;;;;;;4948716;28;20055;-71
2021/04/20 09:02:58;;;;;;;40.50;22.25;;;;;;;;;;4957660;28;20055;-70
2021/04/20 09:05:31;;;;;;;43.22;22.92;;;;;;;;;;4966748;28;20403;-71
2021/04/20 09:08:09;;;;;;;37.35;21.38;;;;;;;;;;4960605;28;20514;-69
2021/04/20 09:10:42;;;;;;;40.22;21.60;;;;;;;;;;4968450;28;20489;-72
2021/04/20 09:13:19;;;;;;;40.35;22.23;;;;;;;;;;4954512;28;20756;-70
2021/04/20 09:15:49;;;;;;;39.55;21.40;;;;;;;;;;4966369;28;20050;-71
2021/04/20 09:18:20;;;;;;;40.70;20.92;;;;;;;;;;4962232;28;20119;-70
2021/04/20 09:20:53;;;;;;;40.60;21.92;;;;;;;;;;4966556;28;20046;-70
2021/04/20 09:23:31;;;;;;;41.20;21.90;;;;;;;;;;4968323;28;20109;-70
2021/04/20 09:26:05;;;;;;;43.05;22.92;;;;;;;;;;4963093;28;20055;-70
2021/04/20 09:28:38;;;;;;;40.60;22.40;;;;;;;;;;4957615;28;20410;-70
2021/04/20 09:31:10;;;;;;;38.70;20.30;;;;;;;;;;4967486;28;20137;-72
2021/04/20 09:33:39;;;;;;;41.95;21.17;;;;;;;;;;4967605;28;20050;-71
2021/04/20 09:36:09;;;;;;;36.67;20.55;;;;;;;;;;4963203;28;20542;-73
2021/04/20 09:38:39;;;;;;;39.58;20.75;;;;;;;;;;4962447;28;20077;-71
2021/04/20 09:41:08;;;;;;;42.78;20.88;;;;;;;;;;4966226;28;20054;-71
2021/04/20 09:43:43;;;;;;;36.83;19.17;;;;;;;;;;4964992;28;20051;-71
2021/04/20 09:46:16;;;;;;;34.42;19.35;;;;;;;;;;4965632;28;20466;-70
2021/04/20 09:48:48;;;;;;;41.65;22.05;;;;;;;;;;4964707;28;20093;-71
2021/04/20 09:51:19;;;;;;;41.05;21.50;;;;;;;;;;4969627;28;20050;-70
2021/04/20 09:53:55;;;;;;;37.35;20.67;;;;;;;;;;4968604;28;20466;-70
2021/04/20 09:56:27;;;;;;;43.70;21.55;;;;;;;;;;4963363;28;20349;-70
2021/04/20 09:58:55;;;;;;;38.00;21.95;;;;;;;;;;4963149;28;20069;-70
2021/04/20 10:01:33;;;;;;;38.22;20.60;;;;;;;;;;4964583;28;20188;-70
2021/04/20 10:04:07;;;;;;;39.72;20.85;;;;;;;;;;4962710;28;20054;-70
2021/04/20 10:06:51;;;;;;;36.45;19.48;;;;;;;;;;4956369;28;20051;-71
2021/04/20 10:09:27;;;;;;;41.75;22.50;;;;;;;;;;4955214;28;20058;-72
2021/04/20 10:12:01;;;;;;;37.47;21.20;;;;;;;;;;4965510;28;20055;-71
2021/04/20 10:14:33;;;;;;;41.35;21.55;;;;;;;;;;4964460;28;20047;-73
2021/04/20 10:17:06;;;;;;;37.78;20.08;;;;;;;;;;4951722;28;20525;-73
2021/04/20 10:19:38;;;;;;;38.35;21.20;;;;;;;;;;4964825;28;20059;-73
2021/04/20 10:22:30;;;;;;;33.90;19.92;;;;;;;;;;4968929;28;20057;-72
2021/04/20 10:25:04;;;;;;;38.63;21.02;;;;;;;;;;4964574;28;20136;-70
2021/04/20 10:27:35;;;;;;;37.25;22.00;;;;;;;;;;4967124;28;20068;-70
2021/04/20 10:30:04;;;;;;;40.08;22.55;;;;;;;;;;4958294;28;20054;-71
2021/04/20 10:32:33;;;;;;;33.78;20.00;;;;;;;;;;4959552;28;20066;-71
2021/04/20 10:35:03;;;;;;;33.88;19.23;;;;;;;;;;4961002;28;20054;-72
2021/04/20 10:37:47;;;;;;;32.15;19.40;;;;;;;;;;4956986;28;20059;-71
2021/04/20 10:40:17;;;;;;;31.30;18.95;;;;;;;;;;4959754;28;20066;-71
2021/04/20 10:42:47;;;;;;;33.88;19.20;;;;;;;;;;4958835;28;20682;-75
2021/04/20 10:45:16;;;;;;;34.40;19.25;;;;;;;;;;4963979;28;20054;-71
2021/04/20 10:47:48;;;;;;;36.83;20.27;;;;;;;;;;4964886;28;20522;-74
2021/04/20 10:50:18;;;;;;;37.67;20.00;;;;;;;;;;4968544;28;20116;-72
2021/04/20 10:52:46;;;;;;;34.95;19.00;;;;;;;;;;4965994;28;20067;-71
2021/04/20 10:55:18;;;;;;;33.00;18.20;;;;;;;;;;4953761;28;20046;-72
2021/04/20 10:57:47;;;;;;;29.80;18.23;;;;;;;;;;4956569;28;20517;-74
2021/04/20 11:00:16;;;;;;;32.75;18.27;;;;;;;;;;4960955;28;20476;-74
2021/04/20 11:02:46;;;;;;;35.97;18.00;;;;;;;;;;4962804;28;20058;-72
2021/04/20 11:05:16;;;;;;;32.95;18.45;;;;;;;;;;4964671;28;20541;-73
2021/04/20 11:07:45;;;;;;;30.80;18.02;;;;;;;;;;4962269;28;20130;-73
2021/04/20 11:10:14;;;;;;;31.77;17.63;;;;;;;;;;4955727;28;20059;-72
2021/04/20 11:12:43;;;;;;;31.55;18.05;;;;;;;;;;4962470;28;20486;-72
2021/04/20 11:15:15;;;;;;;29.58;18.08;;;;;;;;;;4966153;28;20051;-73
2021/04/20 11:17:50;;;;;;;32.83;17.95;;;;;;;;;;4958284;28;20158;-74
2021/04/20 11:20:19;;;;;;;31.50;17.92;;;;;;;;;;4963245;28;20799;-71
2021/04/20 11:22:52;;;;;;;31.52;17.58;;;;;;;;;;4960498;28;20129;-73
2021/04/20 11:25:23;;;;;;;33.10;17.73;;;;;;;;;;4960264;28;20051;-71
2021/04/20 11:27:54;;;;;;;32.33;17.35;;;;;;;;;;4959708;28;20062;-73
2021/04/20 11:30:25;;;;;;;31.75;18.13;;;;;;;;;;4962311;28;20053;-72
2021/04/20 11:32:54;;;;;;;32.70;17.38;;;;;;;;;;4961928;28;20047;-74
2021/04/20 11:35:23;;;;;;;32.85;18.70;;;;;;;;;;4964015;28;20046;-74
2021/04/20 11:37:51;;;;;;;30.75;16.25;;;;;;;;;;4962390;28;20054;-73
2021/04/20 11:40:27;;;;;;;27.85;16.50;;;;;;;;;;4958807;28;20053;-73
2021/04/20 11:42:57;;;;;;;31.35;16.92;;;;;;;;;;4963052;28;20074;-74
2021/04/20 11:45:26;;;;;;;31.13;16.08;;;;;;;;;;4958372;28;20055;-76
2021/04/20 11:47:57;;;;;;;30.75;16.75;;;;;;;;;;4962305;28;20663;-74
2021/04/20 11:50:27;;;;;;;27.52;15.70;;;;;;;;;;4962849;28;20162;-75
2021/04/20 11:52:57;;;;;;;27.48;16.27;;;;;;;;;;4963881;28;20090;-75
2021/04/20 11:55:29;;;;;;;27.65;15.60;;;;;;;;;;4969130;28;20060;-76
2021/04/20 11:58:02;;;;;;;27.63;16.75;;;;;;;;;;4957326;28;20057;-72
2021/04/20 12:00:31;;;;;;;28.33;15.88;;;;;;;;;;4963773;28;20145;-73
2021/04/20 12:03:07;;;;;;;25.58;15.38;;;;;;;;;;4962519;28;20501;-73
2021/04/20 12:05:35;;;;;;;27.50;15.52;;;;;;;;;;4959594;28;20058;-73
2021/04/20 12:08:05;;;;;;;28.13;15.88;;;;;;;;;;4963614;28;20062;-73
2021/04/20 12:10:33;;;;;;;27.33;15.32;;;;;;;;;;4959551;28;20055;-73
2021/04/20 12:13:02;;;;;;;28.42;15.80;;;;;;;;;;4966369;28;20073;-74
2021/04/20 12:15:30;;;;;;;26.15;15.02;;;;;;;;;;4957422;28;20051;-73
2021/04/20 12:17:58;;;;;;;25.35;14.23;;;;;;;;;;4964739;28;20163;-75
2021/04/20 12:20:27;;;;;;;22.40;14.23;;;;;;;;;;4959447;28;20085;-75
2021/04/20 12:23:01;;;;;;;;;;;;;;;;;;4967543;28;20051;-73
2021/04/20 12:25:29;;;;;;;23.63;13.63;;;;;;;;;;4969827;28;19926;-73
2021/04/20 12:27:58;;;;;;;27.48;14.82;;;;;;;;;;4981609;28;20328;-72
2021/04/20 12:30:28;;;;;;;24.25;13.77;;;;;;;;;;4980964;28;20058;-73
2021/04/20 12:32:58;;;;;;;24.20;13.93;;;;;;;;;;4968527;28;20050;-71
2021/04/20 12:35:29;;;;;;;25.52;14.25;;;;;;;;;;4966556;28;20521;-75
2021/04/20 12:37:59;;;;;;;23.33;13.27;;;;;;;;;;4963210;28;20102;-71
2021/04/20 12:40:28;;;;;;;23.92;14.48;;;;;;;;;;4978678;28;20677;-73
2021/04/20 12:43:00;;;;;;;28.88;13.95;;;;;;;;;;4958687;28;20053;-73
2021/04/20 12:45:32;;;;;;;20.98;12.55;;;;;;;;;;4966846;28;20299;-72
2021/04/20 12:48:00;;;;;;;26.13;14.15;;;;;;;;;;4970389;28;20156;-71
2021/04/20 12:50:30;;;;;;;22.30;13.60;;;;;;;;;;4969248;28;20586;-71
2021/04/20 12:53:00;;;;;;;24.30;13.45;;;;;;;;;;4969063;28;20122;-72
2021/04/20 12:55:29;;;;;;;23.40;13.20;;;;;;;;;;4970434;28;20105;-72
2021/04/20 12:57:59;;;;;;;25.05;13.73;;;;;;;;;;4966935;28;20102;-72
2021/04/20 13:00:28;;;;;;;27.00;14.00;;;;;;;;;;4965228;28;20043;-72
2021/04/20 13:02:58;;;;;;;22.50;13.50;;;;;;;;;;4959821;28;20125;-75
2021/04/20 13:05:28;;;;;;;24.20;14.13;;;;;;;;;;4967124;28;20134;-73
2021/04/20 13:08:02;;;;;;;22.35;12.80;;;;;;;;;;4964414;28;20051;-69
2021/04/20 13:10:30;;;;;;;24.42;13.32;;;;;;;;;;4952771;28;20165;-70
2021/04/20 13:13:00;;;;;;;25.05;13.45;;;;;;;;;;4961681;28;20047;-70
2021/04/20 13:15:28;;;;;;;19.63;12.43;;;;;;;;;;4966925;28;20054;-70
2021/04/20 13:17:59;;;;;;;21.85;12.93;;;;;;;;;;4961212;28;20073;-70
2021/04/20 13:20:28;;;;;;;24.40;13.20;;;;;;;;;;4966016;28;20592;-69
2021/04/20 13:22:56;;;;;;;20.10;11.80;;;;;;;;;;4966971;28;20439;-70
2021/04/20 13:25:24;;;;;;;19.65;12.07;;;;;;;;;;4968205;28;20121;-69
2021/04/20 13:27:53;;;;;;;18.60;10.95;;;;;;;;;;4957034;28;20178;-70
2021/04/20 13:30:22;;;;;;;18.35;11.45;;;;;;;;;;4964839;28;20085;-70
2021/04/20 13:32:51;;;;;;;21.00;11.40;;;;;;;;;;4964385;28;20051;-70
2021/04/20 13:35:21;;;;;;;19.33;12.00;;;;;;;;;;4965775;28;20481;-67
2021/04/20 13:37:52;;;;;;;19.35;11.68;;;;;;;;;;4960703;28;20105;-68
2021/04/20 13:40:21;;;;;;;17.42;11.90;;;;;;;;;;4965913;28;20118;-68
2021/04/20 13:42:53;;;;;;;18.33;10.65;;;;;;;;;;4962193;28;20049;-68
2021/04/20 13:45:24;;;;;;;18.17;11.55;;;;;;;;;;4966166;28;20046;-69
2021/04/20 13:47:53;;;;;;;18.45;10.55;;;;;;;;;;4962963;28;20518;-69
2021/04/20 13:50:33;;;;;;;19.73;11.55;;;;;;;;;;4960003;28;20149;-69
2021/04/20 13:53:05;;;;;;;16.92;11.18;;;;;;;;;;4965461;28;20392;-69
2021/04/20 13:55:34;;;;;;;17.88;10.93;;;;;;;;;;4962294;28;20513;-69
2021/04/20 13:58:04;;;;;;;16.23;10.32;;;;;;;;;;4965151;28;20097;-69
2021/04/20 14:00:35;;;;;;;21.92;12.90;;;;;;;;;;4955845;28;20065;-69
2021/04/20 14:03:05;;;;;;;17.63;10.80;;;;;;;;;;4964612;28;20062;-69
2021/04/20 14:05:36;;;;;;;15.88;10.82;;;;;;;;;;4968242;28;20062;-69
2021/04/20 14:08:06;;;;;;;18.35;11.45;;;;;;;;;;4963639;28;20471;-69
2021/04/20 14:10:36;;;;;;;15.65;10.52;;;;;;;;;;4961804;28;20055;-70
2021/04/20 14:13:11;;;;;;;18.50;10.13;;;;;;;;;;4966071;28;20061;-70
2021/04/20 14:15:41;;;;;;;18.15;10.95;;;;;;;;;;4964434;28;20070;-70
2021/04/20 14:18:12;;;;;;;14.32;9.23;;;;;;;;;;4962836;28;20113;-70
2021/04/20 14:20:43;;;;;;;17.75;11.80;;;;;;;;;;4970451;28;20050;-68
2021/04/20 14:23:13;;;;;;;19.50;11.38;;;;;;;;;;4966727;28;20050;-68
2021/04/20 14:25:42;;;;;;;18.92;12.00;;;;;;;;;;4969801;28;20062;-68
2021/04/20 14:28:11;;;;;;;18.05;12.10;;;;;;;;;;4966282;28;20050;-67
2021/04/20 14:30:40;;;;;;;15.65;10.10;;;;;;;;;;4967017;28;20085;-67
2021/04/20 14:33:09;;;;;;;16.10;10.88;;;;;;;;;;4957102;28;20046;-67
2021/04/20 14:35:38;;;;;;;17.48;11.88;;;;;;;;;;4952684;28;20050;-68